Pagrindinis puslapis
METAR-TAF:

METAR-TAF

Oro uostai :

Pskovas, Rusija

platuma: 57-47-06N, ilguma: 028-23-54E, Aukštis: 47 m

Dabartinis oras

Ataskaita buvo paskelbta 38 minutes, ne 19:00 UTC
Vėjas 10 kt iš Šiaurės, svyruoja nuo Šiaurės ir Rytų/Šiaurės Rytų
Temperatūra 16°C
Drėgmė 36%
Slėgis 1019 hPa
Matomumas 10 km arba daugiau

METAR: ULOO 301900Z AUTO 01005MPS 350V070 9999 // NCD 16/01 Q1019 RMK QFE760

Laikas: 22:38 (19:38 UTC)

Prognozė

Ataskaita buvo paskelbta 2 valandos ir 43 minutes, ne 16:55 UTC
Prognozė galioja nuo 30 metu 18 UTC su 31 metu 03 UTC
Vėjas 12 kt iš Šiaurės su gūsio iki 21 kt
Matomumas 10 km arba daugiau
Išsisklaidę debesys ne aukštis 3000 ft
Laikinai
nuo 30 metu 18 UTC su 31 metu 03 UTC
Vėjas 17 kt iš Šiaurės/Šiaurės Rytų su gūsio iki 27 kt
Su prošvaistėmis ne aukštis 3000 ft

TAF: ULOO 301655Z 3018/3103 36006G11MPS 9999 SCT030 TEMPO 3018/3103 02009G14MPS BKN030

Orai ataskaitas ir orų prognozės (METAR, TAF).

turimą stotys yra geltonos ir raudonos taškus žemėlapyje.

Perkelti pele per norėdami pamatyti stoties vardą.

Tada spustelėkite, norėdami matyti oro stebėjimo ir prognozės.

Norėdami pakeisti žemėlapį: spustelėkite ant žalios mygtukų su juodo kryžiaus žemyn,; žalią mygtuką su brūkšneliu, jei norite nutolinti; arba žalių rodyklių gretimoms žemėlapius.


METAR-TAF: